sensor_id;sensor_type;location;lat;lon;timestamp;temperature;humidity
50955;DHT22;36966;48.064;-0.792;2023-08-12T00:00:26;24.90;69.20
50955;DHT22;36966;48.064;-0.792;2023-08-12T00:02:46;24.90;69.20
50955;DHT22;36966;48.064;-0.792;2023-08-12T00:05:08;24.90;69.20
50955;DHT22;36966;48.064;-0.792;2023-08-12T00:07:32;24.90;69.10
50955;DHT22;36966;48.064;-0.792;2023-08-12T00:09:51;24.90;69.10
50955;DHT22;36966;48.064;-0.792;2023-08-12T00:12:11;24.90;69.30
50955;DHT22;36966;48.064;-0.792;2023-08-12T00:14:30;24.90;69.20
50955;DHT22;36966;48.064;-0.792;2023-08-12T00:16:49;24.90;69.00
50955;DHT22;36966;48.064;-0.792;2023-08-12T00:19:09;24.80;68.90
50955;DHT22;36966;48.064;-0.792;2023-08-12T00:21:28;24.80;69.10
50955;DHT22;36966;48.064;-0.792;2023-08-12T00:23:47;24.80;68.90
50955;DHT22;36966;48.064;-0.792;2023-08-12T00:26:08;24.80;68.90
50955;DHT22;36966;48.064;-0.792;2023-08-12T00:28:28;24.80;68.80
50955;DHT22;36966;48.064;-0.792;2023-08-12T00:30:47;24.80;68.90
50955;DHT22;36966;48.064;-0.792;2023-08-12T00:33:07;24.80;68.90
50955;DHT22;36966;48.064;-0.792;2023-08-12T00:35:36;24.80;68.90
50955;DHT22;36966;48.064;-0.792;2023-08-12T00:37:55;24.80;68.80
50955;DHT22;36966;48.064;-0.792;2023-08-12T00:40:14;24.80;68.90
50955;DHT22;36966;48.064;-0.792;2023-08-12T00:42:34;24.80;68.80
50955;DHT22;36966;48.064;-0.792;2023-08-12T00:45:02;24.80;68.90
50955;DHT22;36966;48.064;-0.792;2023-08-12T00:47:22;24.80;68.70
50955;DHT22;36966;48.064;-0.792;2023-08-12T00:49:42;24.80;68.80
50955;DHT22;36966;48.064;-0.792;2023-08-12T00:52:04;24.80;68.80
50955;DHT22;36966;48.064;-0.792;2023-08-12T00:54:24;24.80;68.80
50955;DHT22;36966;48.064;-0.792;2023-08-12T00:56:45;24.80;68.80
50955;DHT22;36966;48.064;-0.792;2023-08-12T00:59:05;24.80;68.80
50955;DHT22;36966;48.064;-0.792;2023-08-12T01:01:26;24.80;68.70
50955;DHT22;36966;48.064;-0.792;2023-08-12T01:03:45;24.80;68.70
50955;DHT22;36966;48.064;-0.792;2023-08-12T01:06:06;24.70;68.80
50955;DHT22;36966;48.064;-0.792;2023-08-12T01:08:27;24.70;68.70
50955;DHT22;36966;48.064;-0.792;2023-08-12T01:10:52;24.70;68.80
50955;DHT22;36966;48.064;-0.792;2023-08-12T01:15:43;24.80;68.70
50955;DHT22;36966;48.064;-0.792;2023-08-12T01:18:03;24.70;68.70
50955;DHT22;36966;48.064;-0.792;2023-08-12T01:20:24;24.70;68.80
50955;DHT22;36966;48.064;-0.792;2023-08-12T01:22:45;24.70;68.60
50955;DHT22;36966;48.064;-0.792;2023-08-12T01:25:05;24.70;68.60
50955;DHT22;36966;48.064;-0.792;2023-08-12T01:27:25;24.70;68.60
50955;DHT22;36966;48.064;-0.792;2023-08-12T01:29:45;24.70;68.60
50955;DHT22;36966;48.064;-0.792;2023-08-12T01:36:52;24.70;68.50
50955;DHT22;36966;48.064;-0.792;2023-08-12T01:39:13;24.70;68.70
50955;DHT22;36966;48.064;-0.792;2023-08-12T01:41:34;24.70;68.50
50955;DHT22;36966;48.064;-0.792;2023-08-12T01:43:54;24.70;68.60
50955;DHT22;36966;48.064;-0.792;2023-08-12T01:46:13;24.70;68.70
50955;DHT22;36966;48.064;-0.792;2023-08-12T01:48:35;24.70;68.70
50955;DHT22;36966;48.064;-0.792;2023-08-12T01:50:54;24.70;68.70
50955;DHT22;36966;48.064;-0.792;2023-08-12T01:53:14;24.70;68.60
50955;DHT22;36966;48.064;-0.792;2023-08-12T01:55:33;24.70;68.70
50955;DHT22;36966;48.064;-0.792;2023-08-12T01:57:53;24.70;68.70
50955;DHT22;36966;48.064;-0.792;2023-08-12T02:00:12;24.70;68.60
50955;DHT22;36966;48.064;-0.792;2023-08-12T02:02:32;24.70;68.60
50955;DHT22;36966;48.064;-0.792;2023-08-12T02:04:51;24.70;68.70
50955;DHT22;36966;48.064;-0.792;2023-08-12T02:07:10;24.70;68.60
50955;DHT22;36966;48.064;-0.792;2023-08-12T02:09:30;24.70;68.60
50955;DHT22;36966;48.064;-0.792;2023-08-12T02:11:49;24.70;68.70
50955;DHT22;36966;48.064;-0.792;2023-08-12T02:14:09;24.70;68.60
50955;DHT22;36966;48.064;-0.792;2023-08-12T02:16:28;24.70;68.60
50955;DHT22;36966;48.064;-0.792;2023-08-12T02:18:47;24.70;68.60
50955;DHT22;36966;48.064;-0.792;2023-08-12T02:21:07;24.70;68.50
50955;DHT22;36966;48.064;-0.792;2023-08-12T02:23:26;24.70;68.60
50955;DHT22;36966;48.064;-0.792;2023-08-12T02:25:46;24.70;68.60
50955;DHT22;36966;48.064;-0.792;2023-08-12T02:28:06;24.70;68.60
50955;DHT22;36966;48.064;-0.792;2023-08-12T02:30:26;24.70;68.50
50955;DHT22;36966;48.064;-0.792;2023-08-12T02:32:46;24.70;68.60
50955;DHT22;36966;48.064;-0.792;2023-08-12T02:35:06;24.70;68.60
50955;DHT22;36966;48.064;-0.792;2023-08-12T02:37:25;24.70;68.60
50955;DHT22;36966;48.064;-0.792;2023-08-12T02:39:45;24.70;68.60
50955;DHT22;36966;48.064;-0.792;2023-08-12T02:42:04;24.70;68.60
50955;DHT22;36966;48.064;-0.792;2023-08-12T02:44:23;24.70;68.50
50955;DHT22;36966;48.064;-0.792;2023-08-12T02:46:43;24.70;68.50
50955;DHT22;36966;48.064;-0.792;2023-08-12T02:49:02;24.70;68.50
50955;DHT22;36966;48.064;-0.792;2023-08-12T02:51:21;24.70;68.50
50955;DHT22;36966;48.064;-0.792;2023-08-12T02:53:43;24.70;68.50
50955;DHT22;36966;48.064;-0.792;2023-08-12T02:56:09;24.70;68.40
50955;DHT22;36966;48.064;-0.792;2023-08-12T02:58:28;24.70;68.50
50955;DHT22;36966;48.064;-0.792;2023-08-12T03:00:47;24.70;68.50
50955;DHT22;36966;48.064;-0.792;2023-08-12T03:03:06;24.70;68.40
50955;DHT22;36966;48.064;-0.792;2023-08-12T03:05:31;24.70;68.40
50955;DHT22;36966;48.064;-0.792;2023-08-12T03:07:54;24.70;68.40
50955;DHT22;36966;48.064;-0.792;2023-08-12T03:10:13;24.70;68.40
50955;DHT22;36966;48.064;-0.792;2023-08-12T03:12:32;24.70;68.40
50955;DHT22;36966;48.064;-0.792;2023-08-12T03:14:51;24.70;68.40
50955;DHT22;36966;48.064;-0.792;2023-08-12T03:17:11;24.60;68.40
50955;DHT22;36966;48.064;-0.792;2023-08-12T03:19:30;24.60;68.40
50955;DHT22;36966;48.064;-0.792;2023-08-12T03:21:50;24.60;68.30
50955;DHT22;36966;48.064;-0.792;2023-08-12T03:24:10;24.60;68.30
50955;DHT22;36966;48.064;-0.792;2023-08-12T03:26:29;24.70;68.40
50955;DHT22;36966;48.064;-0.792;2023-08-12T03:28:48;24.60;68.30
50955;DHT22;36966;48.064;-0.792;2023-08-12T03:31:08;24.60;68.30
50955;DHT22;36966;48.064;-0.792;2023-08-12T03:33:27;24.60;68.30
50955;DHT22;36966;48.064;-0.792;2023-08-12T03:35:49;24.60;68.30
50955;DHT22;36966;48.064;-0.792;2023-08-12T03:38:08;24.60;68.30
50955;DHT22;36966;48.064;-0.792;2023-08-12T03:40:27;24.60;68.30
50955;DHT22;36966;48.064;-0.792;2023-08-12T03:42:47;24.60;68.20
50955;DHT22;36966;48.064;-0.792;2023-08-12T03:45:07;24.60;68.20
50955;DHT22;36966;48.064;-0.792;2023-08-12T03:47:26;24.60;68.20
50955;DHT22;36966;48.064;-0.792;2023-08-12T03:49:45;24.60;68.10
50955;DHT22;36966;48.064;-0.792;2023-08-12T03:52:05;24.60;68.20
50955;DHT22;36966;48.064;-0.792;2023-08-12T03:54:26;24.60;68.20
50955;DHT22;36966;48.064;-0.792;2023-08-12T03:56:45;24.60;68.20
50955;DHT22;36966;48.064;-0.792;2023-08-12T03:59:04;24.60;68.20
50955;DHT22;36966;48.064;-0.792;2023-08-12T04:01:24;24.60;68.20
50955;DHT22;36966;48.064;-0.792;2023-08-12T04:03:43;24.50;68.10
50955;DHT22;36966;48.064;-0.792;2023-08-12T04:06:02;24.60;68.10
50955;DHT22;36966;48.064;-0.792;2023-08-12T04:08:22;24.50;68.10
50955;DHT22;36966;48.064;-0.792;2023-08-12T04:10:44;24.60;68.10
50955;DHT22;36966;48.064;-0.792;2023-08-12T04:13:03;24.60;68.00
50955;DHT22;36966;48.064;-0.792;2023-08-12T04:15:23;24.50;67.90
50955;DHT22;36966;48.064;-0.792;2023-08-12T04:17:42;24.60;67.90
50955;DHT22;36966;48.064;-0.792;2023-08-12T04:20:01;24.60;67.90
50955;DHT22;36966;48.064;-0.792;2023-08-12T04:22:24;24.60;67.80
50955;DHT22;36966;48.064;-0.792;2023-08-12T04:24:45;24.60;67.80
50955;DHT22;36966;48.064;-0.792;2023-08-12T04:27:04;24.60;67.70
50955;DHT22;36966;48.064;-0.792;2023-08-12T04:29:23;24.60;67.70
50955;DHT22;36966;48.064;-0.792;2023-08-12T04:31:43;24.60;67.60
50955;DHT22;36966;48.064;-0.792;2023-08-12T04:34:02;24.60;67.60
50955;DHT22;36966;48.064;-0.792;2023-08-12T04:36:22;24.60;67.60
50955;DHT22;36966;48.064;-0.792;2023-08-12T04:38:42;24.60;67.50
50955;DHT22;36966;48.064;-0.792;2023-08-12T04:41:01;24.60;67.50
50955;DHT22;36966;48.064;-0.792;2023-08-12T04:43:21;24.60;67.50
50955;DHT22;36966;48.064;-0.792;2023-08-12T04:45:40;24.60;67.40
50955;DHT22;36966;48.064;-0.792;2023-08-12T04:48:03;24.60;67.40
50955;DHT22;36966;48.064;-0.792;2023-08-12T04:50:23;24.60;67.30
50955;DHT22;36966;48.064;-0.792;2023-08-12T04:52:42;24.60;67.30
50955;DHT22;36966;48.064;-0.792;2023-08-12T04:55:01;24.60;67.30
50955;DHT22;36966;48.064;-0.792;2023-08-12T04:57:22;24.70;67.20
50955;DHT22;36966;48.064;-0.792;2023-08-12T04:59:41;24.60;67.20
50955;DHT22;36966;48.064;-0.792;2023-08-12T05:02:00;24.60;67.20
50955;DHT22;36966;48.064;-0.792;2023-08-12T05:04:20;24.60;67.10
50955;DHT22;36966;48.064;-0.792;2023-08-12T05:06:42;24.70;67.10
50955;DHT22;36966;48.064;-0.792;2023-08-12T05:09:02;24.60;67.00
50955;DHT22;36966;48.064;-0.792;2023-08-12T05:11:21;24.60;67.00
50955;DHT22;36966;48.064;-0.792;2023-08-12T05:13:41;24.60;67.00
50955;DHT22;36966;48.064;-0.792;2023-08-12T05:16:00;24.70;67.00
50955;DHT22;36966;48.064;-0.792;2023-08-12T05:18:21;24.60;66.90
50955;DHT22;36966;48.064;-0.792;2023-08-12T05:20:42;24.60;66.90
50955;DHT22;36966;48.064;-0.792;2023-08-12T05:23:01;24.60;66.80
50955;DHT22;36966;48.064;-0.792;2023-08-12T05:25:20;24.60;66.70
50955;DHT22;36966;48.064;-0.792;2023-08-12T05:27:39;24.70;66.60
50955;DHT22;36966;48.064;-0.792;2023-08-12T05:30:01;24.70;66.50
50955;DHT22;36966;48.064;-0.792;2023-08-12T05:32:20;24.70;66.50
50955;DHT22;36966;48.064;-0.792;2023-08-12T05:34:40;24.70;66.40
50955;DHT22;36966;48.064;-0.792;2023-08-12T05:36:59;24.70;66.30
50955;DHT22;36966;48.064;-0.792;2023-08-12T05:39:18;24.70;66.30
50955;DHT22;36966;48.064;-0.792;2023-08-12T05:41:38;24.70;66.30
50955;DHT22;36966;48.064;-0.792;2023-08-12T05:43:57;24.70;66.20
50955;DHT22;36966;48.064;-0.792;2023-08-12T05:46:16;24.80;66.20
50955;DHT22;36966;48.064;-0.792;2023-08-12T05:48:36;24.70;66.20
50955;DHT22;36966;48.064;-0.792;2023-08-12T05:50:55;24.70;66.10
50955;DHT22;36966;48.064;-0.792;2023-08-12T05:53:14;24.70;66.10
50955;DHT22;36966;48.064;-0.792;2023-08-12T05:55:33;24.70;66.10
50955;DHT22;36966;48.064;-0.792;2023-08-12T05:57:54;24.70;66.00
50955;DHT22;36966;48.064;-0.792;2023-08-12T06:00:13;24.70;66.00
50955;DHT22;36966;48.064;-0.792;2023-08-12T06:02:32;24.70;66.00
50955;DHT22;36966;48.064;-0.792;2023-08-12T06:04:52;24.70;65.90
50955;DHT22;36966;48.064;-0.792;2023-08-12T06:07:11;24.80;65.90
50955;DHT22;36966;48.064;-0.792;2023-08-12T06:09:30;24.80;65.90
50955;DHT22;36966;48.064;-0.792;2023-08-12T06:11:49;24.80;65.90
50955;DHT22;36966;48.064;-0.792;2023-08-12T06:14:09;24.80;65.80
50955;DHT22;36966;48.064;-0.792;2023-08-12T06:16:28;24.80;65.80
50955;DHT22;36966;48.064;-0.792;2023-08-12T06:18:47;24.80;65.80
50955;DHT22;36966;48.064;-0.792;2023-08-12T06:21:07;24.80;65.80
50955;DHT22;36966;48.064;-0.792;2023-08-12T06:23:27;24.80;65.80
50955;DHT22;36966;48.064;-0.792;2023-08-12T06:25:46;24.80;65.70
50955;DHT22;36966;48.064;-0.792;2023-08-12T06:28:05;24.80;65.70
50955;DHT22;36966;48.064;-0.792;2023-08-12T06:30:27;24.80;65.70
50955;DHT22;36966;48.064;-0.792;2023-08-12T06:32:46;24.90;65.60
50955;DHT22;36966;48.064;-0.792;2023-08-12T06:35:08;24.80;65.60
50955;DHT22;36966;48.064;-0.792;2023-08-12T06:37:27;24.90;65.50
50955;DHT22;36966;48.064;-0.792;2023-08-12T06:39:46;24.90;65.40
50955;DHT22;36966;48.064;-0.792;2023-08-12T06:42:06;24.90;65.40
50955;DHT22;36966;48.064;-0.792;2023-08-12T06:44:25;24.90;65.30
50955;DHT22;36966;48.064;-0.792;2023-08-12T06:46:44;25.00;65.30
50955;DHT22;36966;48.064;-0.792;2023-08-12T06:49:04;25.00;65.20
50955;DHT22;36966;48.064;-0.792;2023-08-12T06:51:23;25.00;65.30
50955;DHT22;36966;48.064;-0.792;2023-08-12T06:53:43;25.00;65.20
50955;DHT22;36966;48.064;-0.792;2023-08-12T06:56:02;25.00;65.20
50955;DHT22;36966;48.064;-0.792;2023-08-12T06:58:21;25.00;65.30
50955;DHT22;36966;48.064;-0.792;2023-08-12T07:00:41;25.00;65.20
50955;DHT22;36966;48.064;-0.792;2023-08-12T07:03:00;25.10;65.20
50955;DHT22;36966;48.064;-0.792;2023-08-12T07:05:20;25.00;65.10
50955;DHT22;36966;48.064;-0.792;2023-08-12T07:07:39;25.00;65.10
50955;DHT22;36966;48.064;-0.792;2023-08-12T07:10:07;25.10;65.00
50955;DHT22;36966;48.064;-0.792;2023-08-12T07:12:26;25.10;65.00
50955;DHT22;36966;48.064;-0.792;2023-08-12T07:14:46;25.10;65.00
50955;DHT22;36966;48.064;-0.792;2023-08-12T07:17:05;25.10;64.70
50955;DHT22;36966;48.064;-0.792;2023-08-12T07:19:25;25.10;64.70
50955;DHT22;36966;48.064;-0.792;2023-08-12T07:21:47;25.00;64.70
50955;DHT22;36966;48.064;-0.792;2023-08-12T07:24:06;25.00;64.40
50955;DHT22;36966;48.064;-0.792;2023-08-12T07:26:25;25.10;64.30
50955;DHT22;36966;48.064;-0.792;2023-08-12T07:28:44;25.20;64.00
50955;DHT22;36966;48.064;-0.792;2023-08-12T07:31:04;25.20;63.90
50955;DHT22;36966;48.064;-0.792;2023-08-12T07:33:23;25.20;63.80
50955;DHT22;36966;48.064;-0.792;2023-08-12T07:35:43;25.20;63.80
50955;DHT22;36966;48.064;-0.792;2023-08-12T07:38:02;25.30;63.80
50955;DHT22;36966;48.064;-0.792;2023-08-12T07:40:22;25.30;63.70
50955;DHT22;36966;48.064;-0.792;2023-08-12T07:42:41;25.40;63.70
50955;DHT22;36966;48.064;-0.792;2023-08-12T07:45:00;25.40;63.70
50955;DHT22;36966;48.064;-0.792;2023-08-12T07:47:20;25.50;63.70
50955;DHT22;36966;48.064;-0.792;2023-08-12T07:49:39;25.50;63.60
50955;DHT22;36966;48.064;-0.792;2023-08-12T07:51:59;25.50;63.60
50955;DHT22;36966;48.064;-0.792;2023-08-12T07:54:19;25.60;63.50
50955;DHT22;36966;48.064;-0.792;2023-08-12T07:56:38;25.70;63.50
50955;DHT22;36966;48.064;-0.792;2023-08-12T07:58:57;25.70;63.50
50955;DHT22;36966;48.064;-0.792;2023-08-12T08:01:16;25.70;63.40
50955;DHT22;36966;48.064;-0.792;2023-08-12T08:03:35;25.80;63.30
50955;DHT22;36966;48.064;-0.792;2023-08-12T08:05:55;25.80;63.10
50955;DHT22;36966;48.064;-0.792;2023-08-12T08:08:14;25.80;63.10
50955;DHT22;36966;48.064;-0.792;2023-08-12T08:10:33;25.90;63.10
50955;DHT22;36966;48.064;-0.792;2023-08-12T08:12:52;26.00;63.00
50955;DHT22;36966;48.064;-0.792;2023-08-12T08:15:12;26.00;62.90
50955;DHT22;36966;48.064;-0.792;2023-08-12T08:17:31;26.00;62.80
50955;DHT22;36966;48.064;-0.792;2023-08-12T08:19:51;26.00;62.80
50955;DHT22;36966;48.064;-0.792;2023-08-12T08:22:10;26.10;62.60
50955;DHT22;36966;48.064;-0.792;2023-08-12T08:24:29;26.20;62.40
50955;DHT22;36966;48.064;-0.792;2023-08-12T08:26:48;26.20;62.50
50955;DHT22;36966;48.064;-0.792;2023-08-12T08:29:08;26.20;62.30
50955;DHT22;36966;48.064;-0.792;2023-08-12T08:31:27;26.20;62.30
50955;DHT22;36966;48.064;-0.792;2023-08-12T08:33:47;26.30;62.30
50955;DHT22;36966;48.064;-0.792;2023-08-12T08:36:06;26.30;62.20
50955;DHT22;36966;48.064;-0.792;2023-08-12T08:38:25;26.30;62.20
50955;DHT22;36966;48.064;-0.792;2023-08-12T08:40:45;26.30;62.10
50955;DHT22;36966;48.064;-0.792;2023-08-12T08:43:04;26.30;62.00
50955;DHT22;36966;48.064;-0.792;2023-08-12T08:45:26;26.40;61.90
50955;DHT22;36966;48.064;-0.792;2023-08-12T08:47:47;26.40;61.90
50955;DHT22;36966;48.064;-0.792;2023-08-12T08:50:07;26.40;61.70
50955;DHT22;36966;48.064;-0.792;2023-08-12T08:52:27;26.50;61.70
50955;DHT22;36966;48.064;-0.792;2023-08-12T08:54:46;26.50;61.60
50955;DHT22;36966;48.064;-0.792;2023-08-12T08:57:08;26.60;61.20
50955;DHT22;36966;48.064;-0.792;2023-08-12T08:59:27;26.60;61.20
50955;DHT22;36966;48.064;-0.792;2023-08-12T09:01:46;26.60;61.00
50955;DHT22;36966;48.064;-0.792;2023-08-12T09:04:07;26.60;60.80
50955;DHT22;36966;48.064;-0.792;2023-08-12T09:06:28;26.70;60.70
50955;DHT22;36966;48.064;-0.792;2023-08-12T09:08:47;26.70;60.80
50955;DHT22;36966;48.064;-0.792;2023-08-12T09:11:07;26.70;60.70
50955;DHT22;36966;48.064;-0.792;2023-08-12T09:13:26;26.70;60.70
50955;DHT22;36966;48.064;-0.792;2023-08-12T09:15:46;26.70;60.50
50955;DHT22;36966;48.064;-0.792;2023-08-12T09:18:05;26.80;60.10
50955;DHT22;36966;48.064;-0.792;2023-08-12T09:20:25;26.80;59.90
50955;DHT22;36966;48.064;-0.792;2023-08-12T09:22:45;26.80;60.00
50955;DHT22;36966;48.064;-0.792;2023-08-12T09:25:05;26.80;60.20
50955;DHT22;36966;48.064;-0.792;2023-08-12T09:27:24;26.80;60.10
50955;DHT22;36966;48.064;-0.792;2023-08-12T09:29:44;26.80;60.20
50955;DHT22;36966;48.064;-0.792;2023-08-12T09:32:09;26.90;59.80
50955;DHT22;36966;48.064;-0.792;2023-08-12T09:34:28;26.90;59.90
50955;DHT22;36966;48.064;-0.792;2023-08-12T09:36:48;26.90;59.90
50955;DHT22;36966;48.064;-0.792;2023-08-12T09:39:07;26.90;59.90
50955;DHT22;36966;48.064;-0.792;2023-08-12T09:41:28;27.00;59.80
50955;DHT22;36966;48.064;-0.792;2023-08-12T09:43:47;27.00;59.50
50955;DHT22;36966;48.064;-0.792;2023-08-12T09:46:07;27.00;59.50
50955;DHT22;36966;48.064;-0.792;2023-08-12T09:48:29;27.10;59.20
50955;DHT22;36966;48.064;-0.792;2023-08-12T09:50:49;27.00;59.20
50955;DHT22;36966;48.064;-0.792;2023-08-12T09:53:09;27.10;59.10
50955;DHT22;36966;48.064;-0.792;2023-08-12T09:55:28;27.10;58.80
50955;DHT22;36966;48.064;-0.792;2023-08-12T09:57:51;27.10;59.00
50955;DHT22;36966;48.064;-0.792;2023-08-12T10:00:17;27.10;58.90
50955;DHT22;36966;48.064;-0.792;2023-08-12T10:02:38;27.10;59.20
50955;DHT22;36966;48.064;-0.792;2023-08-12T10:04:58;27.20;58.90
50955;DHT22;36966;48.064;-0.792;2023-08-12T10:07:18;27.20;59.20
50955;DHT22;36966;48.064;-0.792;2023-08-12T10:09:38;27.20;58.40
50955;DHT22;36966;48.064;-0.792;2023-08-12T10:11:57;27.20;58.30
50955;DHT22;36966;48.064;-0.792;2023-08-12T10:14:17;27.30;58.00
50955;DHT22;36966;48.064;-0.792;2023-08-12T10:16:36;27.30;57.80
50955;DHT22;36966;48.064;-0.792;2023-08-12T10:18:59;27.30;57.80
50955;DHT22;36966;48.064;-0.792;2023-08-12T10:21:20;27.40;57.80
50955;DHT22;36966;48.064;-0.792;2023-08-12T10:23:40;27.40;57.90
50955;DHT22;36966;48.064;-0.792;2023-08-12T10:26:00;27.40;57.50
50955;DHT22;36966;48.064;-0.792;2023-08-12T10:28:21;27.40;57.70
50955;DHT22;36966;48.064;-0.792;2023-08-12T10:30:41;27.50;57.80
50955;DHT22;36966;48.064;-0.792;2023-08-12T10:33:03;27.50;57.50
50955;DHT22;36966;48.064;-0.792;2023-08-12T10:35:23;27.50;57.50
50955;DHT22;36966;48.064;-0.792;2023-08-12T10:37:42;27.50;57.40
50955;DHT22;36966;48.064;-0.792;2023-08-12T10:40:19;27.60;57.50
50955;DHT22;36966;48.064;-0.792;2023-08-12T10:42:45;27.60;57.40
50955;DHT22;36966;48.064;-0.792;2023-08-12T10:45:04;27.70;57.20
50955;DHT22;36966;48.064;-0.792;2023-08-12T10:47:26;27.70;57.40
50955;DHT22;36966;48.064;-0.792;2023-08-12T10:49:49;27.70;57.20
50955;DHT22;36966;48.064;-0.792;2023-08-12T10:52:19;27.70;56.80
50955;DHT22;36966;48.064;-0.792;2023-08-12T10:54:45;27.70;56.80
50955;DHT22;36966;48.064;-0.792;2023-08-12T10:57:05;27.70;56.60
50955;DHT22;36966;48.064;-0.792;2023-08-12T11:02:11;27.70;56.50
50955;DHT22;36966;48.064;-0.792;2023-08-12T11:04:39;27.70;56.40
50955;DHT22;36966;48.064;-0.792;2023-08-12T11:07:02;27.80;56.30
50955;DHT22;36966;48.064;-0.792;2023-08-12T11:09:33;27.80;56.50
50955;DHT22;36966;48.064;-0.792;2023-08-12T11:12:00;27.80;56.60
50955;DHT22;36966;48.064;-0.792;2023-08-12T11:14:21;27.80;56.60
50955;DHT22;36966;48.064;-0.792;2023-08-12T11:16:42;27.80;56.40
50955;DHT22;36966;48.064;-0.792;2023-08-12T11:19:02;27.80;56.50
50955;DHT22;36966;48.064;-0.792;2023-08-12T11:21:22;27.80;55.90
50955;DHT22;36966;48.064;-0.792;2023-08-12T11:32:24;27.90;55.80
50955;DHT22;36966;48.064;-0.792;2023-08-12T11:34:43;27.90;55.90
50955;DHT22;36966;48.064;-0.792;2023-08-12T11:37:03;27.90;55.50
50955;DHT22;36966;48.064;-0.792;2023-08-12T11:39:22;28.00;55.80
50955;DHT22;36966;48.064;-0.792;2023-08-12T11:44:14;28.00;55.80
50955;DHT22;36966;48.064;-0.792;2023-08-12T11:46:34;27.90;55.80
50955;DHT22;36966;48.064;-0.792;2023-08-12T11:48:53;27.90;55.90
50955;DHT22;36966;48.064;-0.792;2023-08-12T11:51:13;27.90;55.50
50955;DHT22;36966;48.064;-0.792;2023-08-12T11:53:32;27.90;55.60
50955;DHT22;36966;48.064;-0.792;2023-08-12T11:55:51;27.90;55.50
50955;DHT22;36966;48.064;-0.792;2023-08-12T11:58:13;27.90;56.00
50955;DHT22;36966;48.064;-0.792;2023-08-12T12:00:32;27.90;56.00
50955;DHT22;36966;48.064;-0.792;2023-08-12T12:02:56;27.90;55.80
50955;DHT22;36966;48.064;-0.792;2023-08-12T12:05:15;27.90;55.70
50955;DHT22;36966;48.064;-0.792;2023-08-12T12:07:35;27.90;55.80
50955;DHT22;36966;48.064;-0.792;2023-08-12T12:09:55;27.90;55.60
50955;DHT22;36966;48.064;-0.792;2023-08-12T12:12:15;27.80;56.10
50955;DHT22;36966;48.064;-0.792;2023-08-12T12:14:35;27.80;55.50
50955;DHT22;36966;48.064;-0.792;2023-08-12T12:16:54;27.90;55.60
50955;DHT22;36966;48.064;-0.792;2023-08-12T12:19:18;27.90;55.70
50955;DHT22;36966;48.064;-0.792;2023-08-12T12:21:41;27.90;54.80
50955;DHT22;36966;48.064;-0.792;2023-08-12T12:24:00;27.90;55.00
50955;DHT22;36966;48.064;-0.792;2023-08-12T12:26:19;27.90;55.20
50955;DHT22;36966;48.064;-0.792;2023-08-12T12:28:39;27.90;55.00
50955;DHT22;36966;48.064;-0.792;2023-08-12T12:30:58;27.90;55.10
50955;DHT22;36966;48.064;-0.792;2023-08-12T12:33:17;27.90;55.20
50955;DHT22;36966;48.064;-0.792;2023-08-12T12:35:37;27.90;55.50
50955;DHT22;36966;48.064;-0.792;2023-08-12T12:37:59;27.80;55.40
50955;DHT22;36966;48.064;-0.792;2023-08-12T12:40:18;27.80;55.30
50955;DHT22;36966;48.064;-0.792;2023-08-12T12:42:38;27.80;55.40
50955;DHT22;36966;48.064;-0.792;2023-08-12T12:44:57;27.80;55.50
50955;DHT22;36966;48.064;-0.792;2023-08-12T12:47:17;27.80;55.30
50955;DHT22;36966;48.064;-0.792;2023-08-12T12:49:37;27.80;55.10
50955;DHT22;36966;48.064;-0.792;2023-08-12T12:51:56;27.80;55.60
50955;DHT22;36966;48.064;-0.792;2023-08-12T12:54:15;27.70;55.70
50955;DHT22;36966;48.064;-0.792;2023-08-12T12:56:34;27.70;55.50
50955;DHT22;36966;48.064;-0.792;2023-08-12T12:58:54;27.70;55.80
50955;DHT22;36966;48.064;-0.792;2023-08-12T13:01:13;27.70;55.60
50955;DHT22;36966;48.064;-0.792;2023-08-12T13:03:32;27.70;55.20
50955;DHT22;36966;48.064;-0.792;2023-08-12T13:05:52;27.70;55.10
50955;DHT22;36966;48.064;-0.792;2023-08-12T13:08:11;27.70;55.20
50955;DHT22;36966;48.064;-0.792;2023-08-12T13:10:33;27.70;55.20
50955;DHT22;36966;48.064;-0.792;2023-08-12T13:12:53;27.70;55.20
50955;DHT22;36966;48.064;-0.792;2023-08-12T13:15:12;27.70;55.50
50955;DHT22;36966;48.064;-0.792;2023-08-12T13:17:31;27.70;55.30
50955;DHT22;36966;48.064;-0.792;2023-08-12T13:19:50;27.60;55.40
50955;DHT22;36966;48.064;-0.792;2023-08-12T13:22:10;27.70;55.30
50955;DHT22;36966;48.064;-0.792;2023-08-12T13:27:29;27.60;55.50
50955;DHT22;36966;48.064;-0.792;2023-08-12T13:29:49;27.60;55.50
50955;DHT22;36966;48.064;-0.792;2023-08-12T13:32:09;27.50;55.50
50955;DHT22;36966;48.064;-0.792;2023-08-12T13:34:28;27.60;55.30
50955;DHT22;36966;48.064;-0.792;2023-08-12T13:36:47;27.50;55.30
50955;DHT22;36966;48.064;-0.792;2023-08-12T13:39:06;27.50;55.50
50955;DHT22;36966;48.064;-0.792;2023-08-12T13:41:25;27.50;55.50
50955;DHT22;36966;48.064;-0.792;2023-08-12T13:43:45;27.50;55.70
50955;DHT22;36966;48.064;-0.792;2023-08-12T13:46:04;27.50;56.00
50955;DHT22;36966;48.064;-0.792;2023-08-12T13:48:27;27.40;56.10
50955;DHT22;36966;48.064;-0.792;2023-08-12T13:50:47;27.40;56.30
50955;DHT22;36966;48.064;-0.792;2023-08-12T13:53:08;27.40;56.00
50955;DHT22;36966;48.064;-0.792;2023-08-12T13:55:27;27.40;55.90
50955;DHT22;36966;48.064;-0.792;2023-08-12T13:57:54;27.40;56.00
50955;DHT22;36966;48.064;-0.792;2023-08-12T14:00:13;27.40;56.00
50955;DHT22;36966;48.064;-0.792;2023-08-12T14:02:33;27.40;55.70
50955;DHT22;36966;48.064;-0.792;2023-08-12T14:04:53;27.30;55.40
50955;DHT22;36966;48.064;-0.792;2023-08-12T14:07:12;27.30;55.50
50955;DHT22;36966;48.064;-0.792;2023-08-12T14:09:32;27.30;55.20
50955;DHT22;36966;48.064;-0.792;2023-08-12T14:11:52;27.30;51.80
50955;DHT22;36966;48.064;-0.792;2023-08-12T14:14:11;27.20;51.20
50955;DHT22;36966;48.064;-0.792;2023-08-12T14:16:33;27.20;50.60
50955;DHT22;36966;48.064;-0.792;2023-08-12T14:18:53;27.20;50.60
50955;DHT22;36966;48.064;-0.792;2023-08-12T14:21:12;27.10;51.10
50955;DHT22;36966;48.064;-0.792;2023-08-12T14:23:31;27.10;47.80
50955;DHT22;36966;48.064;-0.792;2023-08-12T14:25:51;27.00;48.10
50955;DHT22;36966;48.064;-0.792;2023-08-12T14:28:10;27.00;48.40
50955;DHT22;36966;48.064;-0.792;2023-08-12T14:30:29;27.00;47.90
50955;DHT22;36966;48.064;-0.792;2023-08-12T14:32:48;26.90;48.80
50955;DHT22;36966;48.064;-0.792;2023-08-12T14:35:08;26.90;49.20
50955;DHT22;36966;48.064;-0.792;2023-08-12T14:37:28;26.80;48.80
50955;DHT22;36966;48.064;-0.792;2023-08-12T14:39:47;26.80;48.70
50955;DHT22;36966;48.064;-0.792;2023-08-12T14:42:06;26.80;48.00
50955;DHT22;36966;48.064;-0.792;2023-08-12T14:44:27;26.70;48.50
50955;DHT22;36966;48.064;-0.792;2023-08-12T14:46:47;26.70;48.20
50955;DHT22;36966;48.064;-0.792;2023-08-12T14:49:06;26.70;48.80
50955;DHT22;36966;48.064;-0.792;2023-08-12T14:51:25;26.70;48.40
50955;DHT22;36966;48.064;-0.792;2023-08-12T14:53:48;26.70;48.10